sensor_id;sensor_type;location;lat;lon;timestamp;P1;durP1;ratioP1;P2;durP2;ratioP2
55172;SDS011;41061;52.822;6.860;2023-12-20T00:01:37;13.60;;;2.47;;
55172;SDS011;41061;52.822;6.860;2023-12-20T00:04:03;11.82;;;1.55;;
55172;SDS011;41061;52.822;6.860;2023-12-20T00:06:30;9.48;;;1.77;;
55172;SDS011;41061;52.822;6.860;2023-12-20T00:08:56;9.32;;;1.65;;
55172;SDS011;41061;52.822;6.860;2023-12-20T00:11:23;12.70;;;1.45;;
55172;SDS011;41061;52.822;6.860;2023-12-20T00:13:49;15.68;;;2.10;;
55172;SDS011;41061;52.822;6.860;2023-12-20T00:16:16;12.75;;;1.63;;
55172;SDS011;41061;52.822;6.860;2023-12-20T00:18:42;16.02;;;1.83;;
55172;SDS011;41061;52.822;6.860;2023-12-20T00:21:08;13.43;;;1.67;;
55172;SDS011;41061;52.822;6.860;2023-12-20T00:23:34;13.30;;;1.80;;
55172;SDS011;41061;52.822;6.860;2023-12-20T00:26:00;18.25;;;1.92;;
55172;SDS011;41061;52.822;6.860;2023-12-20T00:28:26;11.32;;;1.85;;
55172;SDS011;41061;52.822;6.860;2023-12-20T00:30:52;22.85;;;1.90;;
55172;SDS011;41061;52.822;6.860;2023-12-20T00:33:18;13.52;;;2.13;;
55172;SDS011;41061;52.822;6.860;2023-12-20T00:35:45;21.58;;;3.22;;
55172;SDS011;41061;52.822;6.860;2023-12-20T00:38:11;8.70;;;1.67;;
55172;SDS011;41061;52.822;6.860;2023-12-20T00:40:37;10.57;;;1.80;;
55172;SDS011;41061;52.822;6.860;2023-12-20T00:43:03;15.48;;;2.58;;
55172;SDS011;41061;52.822;6.860;2023-12-20T00:45:29;11.80;;;1.90;;
55172;SDS011;41061;52.822;6.860;2023-12-20T00:47:55;12.75;;;1.65;;
55172;SDS011;41061;52.822;6.860;2023-12-20T00:50:21;9.27;;;1.48;;
55172;SDS011;41061;52.822;6.860;2023-12-20T00:52:47;16.85;;;1.90;;
55172;SDS011;41061;52.822;6.860;2023-12-20T00:55:13;23.73;;;1.88;;
55172;SDS011;41061;52.822;6.860;2023-12-20T00:57:40;22.30;;;2.28;;
55172;SDS011;41061;52.822;6.860;2023-12-20T01:00:06;10.18;;;1.60;;
55172;SDS011;41061;52.822;6.860;2023-12-20T01:02:34;12.93;;;1.92;;
55172;SDS011;41061;52.822;6.860;2023-12-20T01:05:01;18.90;;;2.15;;
55172;SDS011;41061;52.822;6.860;2023-12-20T01:07:27;14.57;;;2.15;;
55172;SDS011;41061;52.822;6.860;2023-12-20T01:09:54;15.93;;;3.72;;
55172;SDS011;41061;52.822;6.860;2023-12-20T01:12:19;19.65;;;3.30;;
55172;SDS011;41061;52.822;6.860;2023-12-20T01:14:46;15.77;;;2.38;;
55172;SDS011;41061;52.822;6.860;2023-12-20T01:17:12;14.52;;;1.85;;
55172;SDS011;41061;52.822;6.860;2023-12-20T01:19:38;16.20;;;2.35;;
55172;SDS011;41061;52.822;6.860;2023-12-20T01:22:04;13.70;;;2.00;;
55172;SDS011;41061;52.822;6.860;2023-12-20T01:24:30;17.23;;;2.00;;
55172;SDS011;41061;52.822;6.860;2023-12-20T01:26:56;18.20;;;2.22;;
55172;SDS011;41061;52.822;6.860;2023-12-20T01:29:22;15.35;;;2.40;;
55172;SDS011;41061;52.822;6.860;2023-12-20T01:31:48;9.38;;;2.33;;
55172;SDS011;41061;52.822;6.860;2023-12-20T01:34:15;13.45;;;3.83;;
55172;SDS011;41061;52.822;6.860;2023-12-20T01:36:41;16.42;;;2.00;;
55172;SDS011;41061;52.822;6.860;2023-12-20T01:39:07;13.68;;;1.98;;
55172;SDS011;41061;52.822;6.860;2023-12-20T01:41:33;16.02;;;2.40;;
55172;SDS011;41061;52.822;6.860;2023-12-20T01:43:59;11.05;;;2.45;;
55172;SDS011;41061;52.822;6.860;2023-12-20T01:46:25;17.90;;;2.22;;
55172;SDS011;41061;52.822;6.860;2023-12-20T01:48:51;15.57;;;2.20;;
55172;SDS011;41061;52.822;6.860;2023-12-20T01:51:17;10.77;;;1.83;;
55172;SDS011;41061;52.822;6.860;2023-12-20T01:53:44;12.93;;;1.90;;
55172;SDS011;41061;52.822;6.860;2023-12-20T01:56:10;15.05;;;2.15;;
55172;SDS011;41061;52.822;6.860;2023-12-20T01:58:38;21.27;;;2.13;;
55172;SDS011;41061;52.822;6.860;2023-12-20T02:01:05;11.70;;;1.73;;
55172;SDS011;41061;52.822;6.860;2023-12-20T02:03:31;13.18;;;2.00;;
55172;SDS011;41061;52.822;6.860;2023-12-20T02:05:57;21.05;;;2.38;;
55172;SDS011;41061;52.822;6.860;2023-12-20T02:08:23;12.45;;;1.95;;
55172;SDS011;41061;52.822;6.860;2023-12-20T02:10:49;18.15;;;2.03;;
55172;SDS011;41061;52.822;6.860;2023-12-20T02:13:16;24.58;;;2.53;;
55172;SDS011;41061;52.822;6.860;2023-12-20T02:15:42;16.88;;;2.38;;
55172;SDS011;41061;52.822;6.860;2023-12-20T02:18:08;17.38;;;2.50;;
55172;SDS011;41061;52.822;6.860;2023-12-20T02:20:34;11.95;;;1.80;;
55172;SDS011;41061;52.822;6.860;2023-12-20T02:23:00;12.05;;;2.10;;
55172;SDS011;41061;52.822;6.860;2023-12-20T02:25:26;16.05;;;2.70;;
55172;SDS011;41061;52.822;6.860;2023-12-20T02:27:52;16.40;;;2.72;;
55172;SDS011;41061;52.822;6.860;2023-12-20T02:30:19;16.17;;;2.05;;
55172;SDS011;41061;52.822;6.860;2023-12-20T02:32:45;16.33;;;2.75;;
55172;SDS011;41061;52.822;6.860;2023-12-20T02:35:11;20.00;;;2.85;;
55172;SDS011;41061;52.822;6.860;2023-12-20T02:37:37;13.15;;;2.80;;
55172;SDS011;41061;52.822;6.860;2023-12-20T02:40:03;20.73;;;2.42;;
55172;SDS011;41061;52.822;6.860;2023-12-20T02:42:29;18.63;;;2.80;;
55172;SDS011;41061;52.822;6.860;2023-12-20T02:44:55;16.80;;;2.78;;
55172;SDS011;41061;52.822;6.860;2023-12-20T02:47:21;19.73;;;3.10;;
55172;SDS011;41061;52.822;6.860;2023-12-20T02:49:47;16.23;;;2.40;;
55172;SDS011;41061;52.822;6.860;2023-12-20T02:52:17;19.90;;;2.60;;
55172;SDS011;41061;52.822;6.860;2023-12-20T02:54:43;13.88;;;2.80;;
55172;SDS011;41061;52.822;6.860;2023-12-20T02:57:09;22.13;;;2.58;;
55172;SDS011;41061;52.822;6.860;2023-12-20T02:59:35;30.10;;;3.45;;
55172;SDS011;41061;52.822;6.860;2023-12-20T03:02:01;20.05;;;2.53;;
55172;SDS011;41061;52.822;6.860;2023-12-20T03:04:27;11.68;;;2.30;;
55172;SDS011;41061;52.822;6.860;2023-12-20T03:06:53;18.55;;;2.60;;
55172;SDS011;41061;52.822;6.860;2023-12-20T03:09:19;21.90;;;2.95;;
55172;SDS011;41061;52.822;6.860;2023-12-20T03:11:45;23.48;;;3.65;;
55172;SDS011;41061;52.822;6.860;2023-12-20T03:14:11;28.98;;;2.70;;
55172;SDS011;41061;52.822;6.860;2023-12-20T03:16:37;22.27;;;3.03;;
55172;SDS011;41061;52.822;6.860;2023-12-20T03:19:03;18.65;;;2.35;;
55172;SDS011;41061;52.822;6.860;2023-12-20T03:21:29;24.10;;;3.30;;
55172;SDS011;41061;52.822;6.860;2023-12-20T03:23:55;17.35;;;2.65;;
55172;SDS011;41061;52.822;6.860;2023-12-20T03:26:24;20.60;;;2.90;;
55172;SDS011;41061;52.822;6.860;2023-12-20T03:28:50;18.38;;;2.95;;
55172;SDS011;41061;52.822;6.860;2023-12-20T03:31:17;17.33;;;3.03;;
55172;SDS011;41061;52.822;6.860;2023-12-20T03:33:43;23.02;;;2.67;;
55172;SDS011;41061;52.822;6.860;2023-12-20T03:36:09;22.05;;;2.58;;
55172;SDS011;41061;52.822;6.860;2023-12-20T03:38:35;20.15;;;3.00;;
55172;SDS011;41061;52.822;6.860;2023-12-20T03:41:01;18.75;;;2.60;;
55172;SDS011;41061;52.822;6.860;2023-12-20T03:43:27;21.60;;;3.22;;
55172;SDS011;41061;52.822;6.860;2023-12-20T03:45:53;30.23;;;3.67;;
55172;SDS011;41061;52.822;6.860;2023-12-20T03:48:19;24.00;;;3.35;;
55172;SDS011;41061;52.822;6.860;2023-12-20T03:50:45;31.45;;;3.65;;
55172;SDS011;41061;52.822;6.860;2023-12-20T03:53:12;29.23;;;3.78;;
55172;SDS011;41061;52.822;6.860;2023-12-20T03:55:38;25.30;;;2.85;;
55172;SDS011;41061;52.822;6.860;2023-12-20T03:58:04;23.13;;;3.22;;
55172;SDS011;41061;52.822;6.860;2023-12-20T04:00:30;27.60;;;5.18;;
55172;SDS011;41061;52.822;6.860;2023-12-20T04:02:56;29.05;;;4.03;;
55172;SDS011;41061;52.822;6.860;2023-12-20T04:05:22;24.63;;;3.35;;
55172;SDS011;41061;52.822;6.860;2023-12-20T04:07:48;24.73;;;4.30;;
55172;SDS011;41061;52.822;6.860;2023-12-20T04:10:15;29.10;;;3.17;;
55172;SDS011;41061;52.822;6.860;2023-12-20T04:12:41;30.15;;;3.42;;
55172;SDS011;41061;52.822;6.860;2023-12-20T04:15:07;25.42;;;3.70;;
55172;SDS011;41061;52.822;6.860;2023-12-20T04:17:35;22.73;;;3.50;;
55172;SDS011;41061;52.822;6.860;2023-12-20T04:20:01;27.27;;;3.95;;
55172;SDS011;41061;52.822;6.860;2023-12-20T04:22:27;26.23;;;3.80;;
55172;SDS011;41061;52.822;6.860;2023-12-20T04:24:53;23.90;;;4.53;;
55172;SDS011;41061;52.822;6.860;2023-12-20T04:27:19;23.17;;;3.90;;
55172;SDS011;41061;52.822;6.860;2023-12-20T04:29:46;24.85;;;4.70;;
55172;SDS011;41061;52.822;6.860;2023-12-20T04:32:12;19.35;;;3.10;;
55172;SDS011;41061;52.822;6.860;2023-12-20T04:34:38;22.83;;;3.25;;
55172;SDS011;41061;52.822;6.860;2023-12-20T04:37:04;22.17;;;3.42;;
55172;SDS011;41061;52.822;6.860;2023-12-20T04:39:30;34.30;;;3.50;;
55172;SDS011;41061;52.822;6.860;2023-12-20T04:41:56;30.63;;;3.60;;
55172;SDS011;41061;52.822;6.860;2023-12-20T04:44:22;30.60;;;4.43;;
55172;SDS011;41061;52.822;6.860;2023-12-20T04:46:48;27.85;;;4.47;;
55172;SDS011;41061;52.822;6.860;2023-12-20T04:49:15;26.10;;;3.85;;
55172;SDS011;41061;52.822;6.860;2023-12-20T04:51:40;27.40;;;3.97;;
55172;SDS011;41061;52.822;6.860;2023-12-20T04:54:07;25.30;;;3.40;;
55172;SDS011;41061;52.822;6.860;2023-12-20T04:56:33;27.48;;;3.83;;
55172;SDS011;41061;52.822;6.860;2023-12-20T04:58:59;31.30;;;4.60;;
55172;SDS011;41061;52.822;6.860;2023-12-20T05:01:25;22.70;;;4.95;;
55172;SDS011;41061;52.822;6.860;2023-12-20T05:03:51;22.60;;;3.53;;
55172;SDS011;41061;52.822;6.860;2023-12-20T05:06:17;29.48;;;4.70;;
55172;SDS011;41061;52.822;6.860;2023-12-20T05:08:43;31.63;;;3.60;;
55172;SDS011;41061;52.822;6.860;2023-12-20T05:11:09;30.65;;;4.32;;
55172;SDS011;41061;52.822;6.860;2023-12-20T05:13:35;27.67;;;3.50;;
55172;SDS011;41061;52.822;6.860;2023-12-20T05:16:01;22.13;;;4.97;;
55172;SDS011;41061;52.822;6.860;2023-12-20T05:18:27;21.05;;;3.08;;
55172;SDS011;41061;52.822;6.860;2023-12-20T05:20:53;19.02;;;3.30;;
55172;SDS011;41061;52.822;6.860;2023-12-20T05:23:19;33.05;;;5.53;;
55172;SDS011;41061;52.822;6.860;2023-12-20T05:25:45;19.00;;;3.67;;
55172;SDS011;41061;52.822;6.860;2023-12-20T05:28:12;36.67;;;4.47;;
55172;SDS011;41061;52.822;6.860;2023-12-20T05:30:38;28.45;;;3.53;;
55172;SDS011;41061;52.822;6.860;2023-12-20T05:33:04;20.05;;;3.78;;
55172;SDS011;41061;52.822;6.860;2023-12-20T05:35:30;31.80;;;3.88;;
55172;SDS011;41061;52.822;6.860;2023-12-20T05:37:56;19.83;;;3.67;;
55172;SDS011;41061;52.822;6.860;2023-12-20T05:40:22;25.08;;;4.07;;
55172;SDS011;41061;52.822;6.860;2023-12-20T05:42:48;23.23;;;3.88;;
55172;SDS011;41061;52.822;6.860;2023-12-20T05:45:14;27.33;;;4.90;;
55172;SDS011;41061;52.822;6.860;2023-12-20T05:47:41;28.17;;;3.63;;
55172;SDS011;41061;52.822;6.860;2023-12-20T05:50:07;30.00;;;5.40;;
55172;SDS011;41061;52.822;6.860;2023-12-20T05:52:34;23.88;;;4.35;;
55172;SDS011;41061;52.822;6.860;2023-12-20T05:55:00;33.63;;;4.15;;
55172;SDS011;41061;52.822;6.860;2023-12-20T05:57:26;28.80;;;5.13;;
55172;SDS011;41061;52.822;6.860;2023-12-20T05:59:52;37.88;;;5.03;;
55172;SDS011;41061;52.822;6.860;2023-12-20T06:02:18;24.63;;;4.03;;
55172;SDS011;41061;52.822;6.860;2023-12-20T06:04:44;23.38;;;4.55;;
55172;SDS011;41061;52.822;6.860;2023-12-20T06:07:14;24.73;;;4.47;;
55172;SDS011;41061;52.822;6.860;2023-12-20T06:09:40;29.52;;;8.27;;
55172;SDS011;41061;52.822;6.860;2023-12-20T06:12:06;24.30;;;5.25;;
55172;SDS011;41061;52.822;6.860;2023-12-20T06:14:33;36.10;;;6.63;;
55172;SDS011;41061;52.822;6.860;2023-12-20T06:16:59;32.25;;;5.35;;
55172;SDS011;41061;52.822;6.860;2023-12-20T06:19:26;33.25;;;5.80;;
55172;SDS011;41061;52.822;6.860;2023-12-20T06:21:52;32.00;;;5.97;;
55172;SDS011;41061;52.822;6.860;2023-12-20T06:24:19;27.73;;;5.15;;
55172;SDS011;41061;52.822;6.860;2023-12-20T06:26:46;23.52;;;4.90;;
55172;SDS011;41061;52.822;6.860;2023-12-20T06:29:12;41.42;;;8.77;;
55172;SDS011;41061;52.822;6.860;2023-12-20T06:31:39;43.90;;;11.63;;
55172;SDS011;41061;52.822;6.860;2023-12-20T06:34:05;25.83;;;4.53;;
55172;SDS011;41061;52.822;6.860;2023-12-20T06:36:31;23.67;;;4.38;;
55172;SDS011;41061;52.822;6.860;2023-12-20T06:38:57;20.35;;;3.97;;
55172;SDS011;41061;52.822;6.860;2023-12-20T06:41:23;32.75;;;5.45;;
55172;SDS011;41061;52.822;6.860;2023-12-20T06:43:50;34.83;;;4.75;;
55172;SDS011;41061;52.822;6.860;2023-12-20T06:46:18;21.50;;;4.07;;
55172;SDS011;41061;52.822;6.860;2023-12-20T06:48:44;24.95;;;5.15;;
55172;SDS011;41061;52.822;6.860;2023-12-20T06:51:14;31.17;;;5.00;;
55172;SDS011;41061;52.822;6.860;2023-12-20T06:53:41;22.92;;;4.55;;
55172;SDS011;41061;52.822;6.860;2023-12-20T06:56:07;23.92;;;3.90;;
55172;SDS011;41061;52.822;6.860;2023-12-20T06:58:33;19.90;;;3.45;;
55172;SDS011;41061;52.822;6.860;2023-12-20T07:01:00;26.88;;;4.30;;
55172;SDS011;41061;52.822;6.860;2023-12-20T07:03:26;28.25;;;5.05;;
55172;SDS011;41061;52.822;6.860;2023-12-20T07:05:52;25.98;;;3.65;;
55172;SDS011;41061;52.822;6.860;2023-12-20T07:08:18;15.73;;;3.45;;
55172;SDS011;41061;52.822;6.860;2023-12-20T07:10:44;30.25;;;4.32;;
55172;SDS011;41061;52.822;6.860;2023-12-20T07:13:10;20.42;;;3.63;;
55172;SDS011;41061;52.822;6.860;2023-12-20T07:15:37;21.65;;;3.70;;
55172;SDS011;41061;52.822;6.860;2023-12-20T07:18:03;21.67;;;4.22;;
55172;SDS011;41061;52.822;6.860;2023-12-20T07:20:30;22.58;;;3.70;;
55172;SDS011;41061;52.822;6.860;2023-12-20T07:22:56;22.05;;;3.15;;
55172;SDS011;41061;52.822;6.860;2023-12-20T07:25:22;24.50;;;3.95;;
55172;SDS011;41061;52.822;6.860;2023-12-20T07:27:48;20.75;;;3.22;;
55172;SDS011;41061;52.822;6.860;2023-12-20T07:30:14;21.73;;;4.35;;
55172;SDS011;41061;52.822;6.860;2023-12-20T07:32:40;26.77;;;3.72;;
55172;SDS011;41061;52.822;6.860;2023-12-20T07:35:06;28.23;;;3.92;;
55172;SDS011;41061;52.822;6.860;2023-12-20T07:37:33;27.38;;;3.40;;
55172;SDS011;41061;52.822;6.860;2023-12-20T07:39:59;23.83;;;3.45;;
55172;SDS011;41061;52.822;6.860;2023-12-20T07:42:25;23.92;;;3.90;;
55172;SDS011;41061;52.822;6.860;2023-12-20T07:44:51;20.63;;;3.53;;
55172;SDS011;41061;52.822;6.860;2023-12-20T07:47:17;26.15;;;3.70;;
55172;SDS011;41061;52.822;6.860;2023-12-20T07:49:49;28.70;;;4.15;;
55172;SDS011;41061;52.822;6.860;2023-12-20T07:52:17;25.88;;;3.80;;
55172;SDS011;41061;52.822;6.860;2023-12-20T07:54:43;20.85;;;3.33;;
55172;SDS011;41061;52.822;6.860;2023-12-20T07:57:10;27.70;;;3.92;;
55172;SDS011;41061;52.822;6.860;2023-12-20T07:59:36;35.28;;;3.80;;
55172;SDS011;41061;52.822;6.860;2023-12-20T08:02:02;20.92;;;3.20;;
55172;SDS011;41061;52.822;6.860;2023-12-20T08:04:28;31.67;;;4.05;;
55172;SDS011;41061;52.822;6.860;2023-12-20T08:06:54;24.50;;;3.83;;
55172;SDS011;41061;52.822;6.860;2023-12-20T08:09:20;28.02;;;3.47;;
55172;SDS011;41061;52.822;6.860;2023-12-20T08:11:47;27.65;;;3.38;;
55172;SDS011;41061;52.822;6.860;2023-12-20T08:14:13;27.73;;;3.78;;
55172;SDS011;41061;52.822;6.860;2023-12-20T08:16:39;27.13;;;3.17;;
55172;SDS011;41061;52.822;6.860;2023-12-20T08:19:05;23.77;;;3.58;;
55172;SDS011;41061;52.822;6.860;2023-12-20T08:21:32;20.48;;;3.30;;
55172;SDS011;41061;52.822;6.860;2023-12-20T08:23:58;30.13;;;4.22;;
55172;SDS011;41061;52.822;6.860;2023-12-20T08:26:25;27.02;;;4.47;;
55172;SDS011;41061;52.822;6.860;2023-12-20T08:28:52;30.70;;;4.60;;
55172;SDS011;41061;52.822;6.860;2023-12-20T08:31:18;24.83;;;3.65;;
55172;SDS011;41061;52.822;6.860;2023-12-20T08:33:45;24.23;;;4.07;;
55172;SDS011;41061;52.822;6.860;2023-12-20T08:36:11;29.92;;;4.35;;
55172;SDS011;41061;52.822;6.860;2023-12-20T08:38:38;27.30;;;4.43;;
55172;SDS011;41061;52.822;6.860;2023-12-20T08:41:04;34.72;;;4.38;;
55172;SDS011;41061;52.822;6.860;2023-12-20T08:43:31;25.58;;;4.63;;
55172;SDS011;41061;52.822;6.860;2023-12-20T08:45:57;23.38;;;3.45;;
55172;SDS011;41061;52.822;6.860;2023-12-20T08:48:23;25.00;;;3.35;;
55172;SDS011;41061;52.822;6.860;2023-12-20T08:50:49;25.80;;;4.78;;
55172;SDS011;41061;52.822;6.860;2023-12-20T08:53:17;17.88;;;4.05;;
55172;SDS011;41061;52.822;6.860;2023-12-20T08:55:44;19.70;;;3.20;;
55172;SDS011;41061;52.822;6.860;2023-12-20T08:58:10;19.73;;;4.10;;
55172;SDS011;41061;52.822;6.860;2023-12-20T09:00:36;28.52;;;3.60;;
55172;SDS011;41061;52.822;6.860;2023-12-20T09:03:03;28.20;;;4.10;;
55172;SDS011;41061;52.822;6.860;2023-12-20T09:05:30;25.23;;;3.60;;
55172;SDS011;41061;52.822;6.860;2023-12-20T09:07:56;33.35;;;3.92;;
55172;SDS011;41061;52.822;6.860;2023-12-20T09:10:22;24.83;;;4.60;;
55172;SDS011;41061;52.822;6.860;2023-12-20T09:12:51;18.70;;;3.47;;
55172;SDS011;41061;52.822;6.860;2023-12-20T09:15:21;22.55;;;3.85;;
55172;SDS011;41061;52.822;6.860;2023-12-20T09:17:47;31.20;;;3.85;;
55172;SDS011;41061;52.822;6.860;2023-12-20T09:20:13;31.80;;;4.32;;
55172;SDS011;41061;52.822;6.860;2023-12-20T09:22:40;24.55;;;3.58;;
55172;SDS011;41061;52.822;6.860;2023-12-20T09:25:07;24.15;;;3.53;;
55172;SDS011;41061;52.822;6.860;2023-12-20T09:27:33;28.95;;;3.83;;
55172;SDS011;41061;52.822;6.860;2023-12-20T09:29:59;24.90;;;4.03;;
55172;SDS011;41061;52.822;6.860;2023-12-20T09:32:25;24.63;;;4.13;;
55172;SDS011;41061;52.822;6.860;2023-12-20T09:34:51;26.38;;;4.15;;
55172;SDS011;41061;52.822;6.860;2023-12-20T09:37:17;22.73;;;3.22;;
55172;SDS011;41061;52.822;6.860;2023-12-20T09:39:43;24.60;;;5.18;;
55172;SDS011;41061;52.822;6.860;2023-12-20T09:42:10;24.10;;;3.22;;
55172;SDS011;41061;52.822;6.860;2023-12-20T09:44:37;24.92;;;4.20;;
55172;SDS011;41061;52.822;6.860;2023-12-20T09:47:07;29.65;;;2.78;;
55172;SDS011;41061;52.822;6.860;2023-12-20T09:49:33;23.50;;;4.45;;
55172;SDS011;41061;52.822;6.860;2023-12-20T09:52:00;21.65;;;3.60;;
55172;SDS011;41061;52.822;6.860;2023-12-20T09:54:27;19.33;;;4.30;;
55172;SDS011;41061;52.822;6.860;2023-12-20T09:56:54;17.30;;;3.58;;
55172;SDS011;41061;52.822;6.860;2023-12-20T09:59:20;23.23;;;4.30;;
55172;SDS011;41061;52.822;6.860;2023-12-20T10:01:46;17.20;;;3.45;;
55172;SDS011;41061;52.822;6.860;2023-12-20T10:04:12;16.52;;;2.85;;
55172;SDS011;41061;52.822;6.860;2023-12-20T10:06:40;15.48;;;2.10;;
55172;SDS011;41061;52.822;6.860;2023-12-20T10:09:06;8.45;;;1.13;;
55172;SDS011;41061;52.822;6.860;2023-12-20T10:11:32;10.88;;;1.10;;
55172;SDS011;41061;52.822;6.860;2023-12-20T10:14:01;5.00;;;1.65;;
55172;SDS011;41061;52.822;6.860;2023-12-20T10:16:28;10.02;;;1.73;;
55172;SDS011;41061;52.822;6.860;2023-12-20T10:18:54;9.43;;;1.23;;
55172;SDS011;41061;52.822;6.860;2023-12-20T10:21:20;11.63;;;1.58;;
55172;SDS011;41061;52.822;6.860;2023-12-20T10:23:47;10.63;;;1.80;;
55172;SDS011;41061;52.822;6.860;2023-12-20T10:26:25;8.35;;;1.70;;
55172;SDS011;41061;52.822;6.860;2023-12-20T10:28:54;7.15;;;1.30;;
55172;SDS011;41061;52.822;6.860;2023-12-20T10:31:30;5.45;;;1.35;;
55172;SDS011;41061;52.822;6.860;2023-12-20T10:33:57;6.35;;;1.33;;
55172;SDS011;41061;52.822;6.860;2023-12-20T10:36:27;12.52;;;1.52;;
55172;SDS011;41061;52.822;6.860;2023-12-20T10:38:54;6.30;;;1.02;;
55172;SDS011;41061;52.822;6.860;2023-12-20T10:41:27;10.63;;;1.50;;
55172;SDS011;41061;52.822;6.860;2023-12-20T10:44:00;9.30;;;2.40;;
55172;SDS011;41061;52.822;6.860;2023-12-20T10:46:28;9.88;;;2.15;;
55172;SDS011;41061;52.822;6.860;2023-12-20T10:48:55;10.55;;;1.55;;
55172;SDS011;41061;52.822;6.860;2023-12-20T10:51:21;11.55;;;1.20;;
55172;SDS011;41061;52.822;6.860;2023-12-20T10:53:49;9.15;;;1.25;;
55172;SDS011;41061;52.822;6.860;2023-12-20T10:56:16;8.90;;;2.28;;
55172;SDS011;41061;52.822;6.860;2023-12-20T10:58:43;8.20;;;1.00;;
55172;SDS011;41061;52.822;6.860;2023-12-20T11:01:09;9.13;;;1.23;;
55172;SDS011;41061;52.822;6.860;2023-12-20T11:03:37;9.75;;;1.20;;
55172;SDS011;41061;52.822;6.860;2023-12-20T11:06:05;6.50;;;1.20;;
55172;SDS011;41061;52.822;6.860;2023-12-20T11:08:44;7.35;;;1.02;;
55172;SDS011;41061;52.822;6.860;2023-12-20T11:11:14;11.75;;;1.10;;
55172;SDS011;41061;52.822;6.860;2023-12-20T11:13:42;7.43;;;1.33;;
55172;SDS011;41061;52.822;6.860;2023-12-20T11:16:09;4.85;;;0.95;;
55172;SDS011;41061;52.822;6.860;2023-12-20T11:18:35;16.52;;;1.70;;
55172;SDS011;41061;52.822;6.860;2023-12-20T11:21:02;10.55;;;1.75;;
55172;SDS011;41061;52.822;6.860;2023-12-20T11:23:29;6.38;;;1.40;;
55172;SDS011;41061;52.822;6.860;2023-12-20T11:25:56;9.27;;;1.75;;
55172;SDS011;41061;52.822;6.860;2023-12-20T11:28:26;7.75;;;1.50;;
55172;SDS011;41061;52.822;6.860;2023-12-20T11:30:56;9.20;;;1.55;;
55172;SDS011;41061;52.822;6.860;2023-12-20T11:33:57;12.88;;;1.80;;
55172;SDS011;41061;52.822;6.860;2023-12-20T11:36:21;16.42;;;1.40;;
55172;SDS011;41061;52.822;6.860;2023-12-20T11:38:55;8.98;;;1.23;;
55172;SDS011;41061;52.822;6.860;2023-12-20T11:41:22;8.25;;;1.45;;
55172;SDS011;41061;52.822;6.860;2023-12-20T11:43:55;11.80;;;1.52;;
55172;SDS011;41061;52.822;6.860;2023-12-20T11:46:21;13.13;;;1.63;;
55172;SDS011;41061;52.822;6.860;2023-12-20T11:48:47;9.40;;;1.42;;
55172;SDS011;41061;52.822;6.860;2023-12-20T11:51:13;12.63;;;2.55;;
55172;SDS011;41061;52.822;6.860;2023-12-20T11:53:40;10.82;;;1.65;;
55172;SDS011;41061;52.822;6.860;2023-12-20T11:56:09;12.73;;;1.75;;
55172;SDS011;41061;52.822;6.860;2023-12-20T11:58:36;8.18;;;1.58;;
55172;SDS011;41061;52.822;6.860;2023-12-20T12:01:02;13.88;;;1.90;;
55172;SDS011;41061;52.822;6.860;2023-12-20T12:03:29;9.05;;;1.70;;
55172;SDS011;41061;52.822;6.860;2023-12-20T12:05:55;12.73;;;1.60;;
55172;SDS011;41061;52.822;6.860;2023-12-20T12:08:22;14.40;;;2.35;;
55172;SDS011;41061;52.822;6.860;2023-12-20T12:10:48;15.02;;;1.70;;
55172;SDS011;41061;52.822;6.860;2023-12-20T12:13:14;9.57;;;1.48;;
55172;SDS011;41061;52.822;6.860;2023-12-20T12:15:40;9.40;;;1.20;;
55172;SDS011;41061;52.822;6.860;2023-12-20T12:18:07;8.50;;;1.35;;
55172;SDS011;41061;52.822;6.860;2023-12-20T12:20:33;16.30;;;1.92;;
55172;SDS011;41061;52.822;6.860;2023-12-20T12:25:26;14.52;;;3.58;;
55172;SDS011;41061;52.822;6.860;2023-12-20T12:27:52;18.15;;;2.00;;
55172;SDS011;41061;52.822;6.860;2023-12-20T12:30:19;12.50;;;2.08;;
55172;SDS011;41061;52.822;6.860;2023-12-20T12:32:45;14.63;;;1.90;;
55172;SDS011;41061;52.822;6.860;2023-12-20T12:35:11;11.65;;;1.80;;
55172;SDS011;41061;52.822;6.860;2023-12-20T12:37:37;11.32;;;1.52;;
55172;SDS011;41061;52.822;6.860;2023-12-20T12:40:14;12.57;;;1.42;;
55172;SDS011;41061;52.822;6.860;2023-12-20T12:42:41;10.38;;;2.10;;
55172;SDS011;41061;52.822;6.860;2023-12-20T12:45:08;15.77;;;2.03;;
55172;SDS011;41061;52.822;6.860;2023-12-20T12:47:35;11.23;;;1.73;;
55172;SDS011;41061;52.822;6.860;2023-12-20T12:50:03;15.63;;;1.67;;
55172;SDS011;41061;52.822;6.860;2023-12-20T12:52:32;10.52;;;2.55;;
55172;SDS011;41061;52.822;6.860;2023-12-20T12:55:00;16.00;;;2.15;;
55172;SDS011;41061;52.822;6.860;2023-12-20T12:57:26;14.77;;;2.25;;
55172;SDS011;41061;52.822;6.860;2023-12-20T12:59:52;13.30;;;1.70;;
55172;SDS011;41061;52.822;6.860;2023-12-20T13:02:18;16.33;;;2.97;;
55172;SDS011;41061;52.822;6.860;2023-12-20T13:04:45;14.00;;;2.10;;
55172;SDS011;41061;52.822;6.860;2023-12-20T13:07:11;8.77;;;1.70;;
55172;SDS011;41061;52.822;6.860;2023-12-20T13:09:40;6.95;;;1.60;;
55172;SDS011;41061;52.822;6.860;2023-12-20T13:12:06;10.60;;;1.60;;
55172;SDS011;41061;52.822;6.860;2023-12-20T13:14:33;14.80;;;1.77;;
55172;SDS011;41061;52.822;6.860;2023-12-20T13:17:00;9.45;;;2.03;;
55172;SDS011;41061;52.822;6.860;2023-12-20T13:19:26;8.00;;;1.35;;
55172;SDS011;41061;52.822;6.860;2023-12-20T13:21:52;8.10;;;1.65;;
55172;SDS011;41061;52.822;6.860;2023-12-20T13:24:19;8.60;;;1.55;;
55172;SDS011;41061;52.822;6.860;2023-12-20T13:26:45;10.25;;;1.73;;
55172;SDS011;41061;52.822;6.860;2023-12-20T13:29:12;10.88;;;1.63;;
55172;SDS011;41061;52.822;6.860;2023-12-20T13:31:38;11.25;;;1.75;;
55172;SDS011;41061;52.822;6.860;2023-12-20T13:34:07;12.63;;;1.90;;
55172;SDS011;41061;52.822;6.860;2023-12-20T13:36:33;8.32;;;1.60;;
55172;SDS011;41061;52.822;6.860;2023-12-20T13:39:01;10.70;;;1.50;;
55172;SDS011;41061;52.822;6.860;2023-12-20T13:41:29;10.25;;;1.77;;
55172;SDS011;41061;52.822;6.860;2023-12-20T13:43:55;10.00;;;1.52;;
55172;SDS011;41061;52.822;6.860;2023-12-20T13:46:21;13.98;;;1.73;;
55172;SDS011;41061;52.822;6.860;2023-12-20T13:48:49;10.23;;;1.77;;
55172;SDS011;41061;52.822;6.860;2023-12-20T13:51:15;14.10;;;1.92;;
55172;SDS011;41061;52.822;6.860;2023-12-20T13:53:41;18.98;;;2.30;;
55172;SDS011;41061;52.822;6.860;2023-12-20T13:56:07;16.42;;;1.80;;
55172;SDS011;41061;52.822;6.860;2023-12-20T13:58:34;10.57;;;2.20;;
55172;SDS011;41061;52.822;6.860;2023-12-20T14:01:03;14.00;;;3.03;;
55172;SDS011;41061;52.822;6.860;2023-12-20T14:03:29;11.73;;;1.70;;
55172;SDS011;41061;52.822;6.860;2023-12-20T14:05:56;15.25;;;2.00;;
55172;SDS011;41061;52.822;6.860;2023-12-20T14:08:22;12.10;;;1.35;;
55172;SDS011;41061;52.822;6.860;2023-12-20T14:10:49;11.02;;;1.70;;
55172;SDS011;41061;52.822;6.860;2023-12-20T14:13:15;14.45;;;2.30;;
55172;SDS011;41061;52.822;6.860;2023-12-20T14:15:41;14.45;;;2.67;;
55172;SDS011;41061;52.822;6.860;2023-12-20T14:18:07;16.20;;;2.28;;
55172;SDS011;41061;52.822;6.860;2023-12-20T14:20:34;12.10;;;2.90;;
55172;SDS011;41061;52.822;6.860;2023-12-20T14:23:01;16.60;;;3.65;;
55172;SDS011;41061;52.822;6.860;2023-12-20T14:25:27;18.42;;;4.25;;
55172;SDS011;41061;52.822;6.860;2023-12-20T14:27:53;23.95;;;6.97;;
55172;SDS011;41061;52.822;6.860;2023-12-20T14:30:20;21.10;;;8.63;;
55172;SDS011;41061;52.822;6.860;2023-12-20T14:32:46;20.27;;;7.20;;
55172;SDS011;41061;52.822;6.860;2023-12-20T14:35:13;15.93;;;3.38;;